Wildersville, Tennessee
Current Conditions -  °F | °C
As of 10:15 PM on Sunday 23 Nov 2014 (Local Time) from KPVE Reporting Station
Overcast Overcast  
Wind Chill: 61°   Ceiling: 1900
Heat Index: 61°   Visibility: 10mi
Dew Point: 57°   Wind: 13mph
Humidity: 88%   Direction: 200°SSW
Pressure: 29.47"   Gusts: NA
Location:  35.78°N, 88.36°W
Report Text: KPVE 240415Z AUTO 20011KT 10SM BKN019 OVC025 16/14 A2947 RMK
Loading
Personal Weather Stations






























Interactive Weather Map New forecast layout! Learn more

10-Day Weather Forecast

Advertisements
Track Severe Weather on mobile